createdAt,value
2019-01-15T00:03:05.824Z,88.58
2019-01-15T00:08:37.509Z,88.86
2019-01-15T00:11:06.846Z,89.03
2019-01-15T00:13:36.482Z,89.15
2019-01-15T00:19:07.499Z,89.93
2019-01-15T00:21:38.795Z,90.31
2019-01-15T00:24:08.142Z,90.34
2019-01-15T00:26:37.635Z,90.43
2019-01-15T00:29:06.968Z,90.51
2019-01-15T00:31:36.632Z,90.46
2019-01-15T00:37:06.504Z,90.44
2019-01-15T00:39:35.837Z,90.59
2019-01-15T00:42:05.175Z,90.81
2019-01-15T00:44:34.654Z,90.87
2019-01-15T00:47:23.596Z,90.73
2019-01-15T00:49:52.924Z,90.79
2019-01-15T00:52:22.777Z,90.77
2019-01-15T00:54:52.116Z,90.68
2019-01-15T00:57:21.632Z,90.63
2019-01-15T00:59:50.958Z,90.57
2019-01-15T01:02:20.511Z,90.65
2019-01-15T01:05:49.006Z,90.84
2019-01-15T01:08:18.641Z,91.23
2019-01-15T01:10:48.105Z,91.51
2019-01-15T01:13:17.836Z,91.69
2019-01-15T01:15:47.166Z,91.64
2019-01-15T01:18:17.132Z,91.57
2019-01-15T01:20:46.617Z,91.65
2019-01-15T01:23:15.963Z,91.63
2019-01-15T01:25:45.561Z,91.71
2019-01-15T01:28:15.206Z,91.81
2019-01-15T01:30:45.278Z,91.91
2019-01-15T01:33:14.902Z,92.01
2019-01-15T01:35:44.229Z,91.92
2019-01-15T01:38:14.209Z,91.91
2019-01-15T01:41:02.962Z,91.72
2019-01-15T01:43:32.879Z,91.86
2019-01-15T01:46:02.474Z,91.93
2019-01-15T01:48:31.829Z,91.97
2019-01-15T01:51:01.154Z,91.96
2019-01-15T01:53:30.701Z,91.94
2019-01-15T01:56:00.093Z,92.01
2019-01-15T01:58:29.973Z,92.10
2019-01-15T02:01:13.002Z,92.13
2019-01-15T02:03:43.304Z,92.17
2019-01-15T02:06:12.928Z,92.17
2019-01-15T02:08:42.883Z,92.08
2019-01-15T02:11:12.508Z,92.03
2019-01-15T02:13:41.855Z,92.07
2019-01-15T02:16:12.058Z,92.05
2019-01-15T02:18:41.935Z,91.83
2019-01-15T02:21:12.997Z,91.73
2019-01-15T02:23:42.882Z,91.58
2019-01-15T02:26:12.214Z,91.50
2019-01-15T02:28:41.823Z,91.55
2019-01-15T02:31:12.039Z,91.53
2019-01-15T02:33:41.674Z,91.51
2019-01-15T02:36:12.146Z,91.35
2019-01-15T02:38:41.824Z,91.30
2019-01-15T02:41:30.256Z,91.24
2019-01-15T02:44:00.077Z,91.08
2019-01-15T02:46:48.736Z,90.76
2019-01-15T02:49:18.141Z,90.76
2019-01-15T02:51:47.750Z,90.78
2019-01-15T02:54:17.118Z,90.63
2019-01-15T02:56:46.739Z,90.55
2019-01-15T02:59:17.995Z,90.49
2019-01-15T03:01:47.622Z,90.29
2019-01-15T03:04:17.251Z,90.28
2019-01-15T03:06:46.879Z,90.12
2019-01-15T03:09:16.223Z,89.81
2019-01-15T03:11:45.869Z,89.61
2019-01-15T03:17:49.425Z,89.18
2019-01-15T03:20:59.109Z,89.18
2019-01-15T03:23:28.444Z,88.85
2019-01-15T03:28:46.424Z,88.74
2019-01-15T03:31:16.206Z,88.55
2019-01-15T03:33:46.178Z,88.11
2019-01-15T03:36:35.139Z,87.74
2019-01-15T03:39:44.821Z,87.74
2019-01-15T03:42:14.143Z,87.44
2019-01-15T03:44:43.783Z,87.08
2019-01-15T03:47:13.470Z,86.96
2019-01-15T03:49:43.101Z,86.74
2019-01-15T03:52:12.504Z,86.97
2019-01-15T03:54:41.970Z,86.97
2019-01-15T03:57:12.265Z,86.48
2019-01-15T03:59:41.896Z,86.31
2019-01-15T04:16:26.619Z,86.03
2019-01-15T04:18:56.007Z,86.10
2019-01-15T04:21:25.349Z,85.74
2019-01-15T04:23:55.046Z,85.58
2019-01-15T04:26:24.685Z,85.30
2019-01-15T04:28:54.188Z,85.09
2019-01-15T04:31:23.759Z,85.20
2019-01-15T04:34:12.230Z,84.98
2019-01-15T04:36:41.813Z,85.15
2019-01-15T04:39:12.389Z,84.72
2019-01-15T04:41:41.988Z,85.02
2019-01-15T04:44:12.418Z,84.89
2019-01-15T04:46:42.038Z,84.88
2019-01-15T04:49:12.402Z,85.10
2019-01-15T04:51:42.149Z,84.99
2019-01-15T04:54:12.439Z,85.18
2019-01-15T05:02:19.300Z,85.06
2019-01-15T05:04:48.636Z,84.75
2019-01-15T05:07:18.488Z,84.81
2019-01-15T05:09:48.078Z,84.92
2019-01-15T05:15:32.974Z,84.37
2019-01-15T05:18:02.303Z,84.42
2019-01-15T05:20:31.761Z,84.35
2019-01-15T05:23:01.510Z,84.23
2019-01-15T05:25:31.163Z,84.17
2019-01-15T05:28:00.488Z,84.08
2019-01-15T05:30:30.135Z,84.29
2019-01-15T05:32:59.573Z,84.48
2019-01-15T05:35:28.930Z,84.53
2019-01-15T05:37:59.874Z,84.48
2019-01-15T05:40:29.687Z,84.71
2019-01-15T05:42:59.620Z,84.86
2019-01-15T05:45:48.925Z,84.97
2019-01-15T05:48:31.405Z,85.29
2019-01-15T05:53:40.771Z,85.38
2019-01-15T05:56:10.388Z,85.54
2019-01-15T05:58:40.061Z,85.61
2019-01-15T06:01:09.568Z,85.70
2019-01-15T06:03:38.894Z,85.81
2019-01-15T06:06:08.526Z,85.77
2019-01-15T06:08:37.921Z,85.90
2019-01-15T06:11:08.878Z,85.82
2019-01-15T06:13:42.590Z,85.94
2019-01-15T06:16:28.866Z,86.10
2019-01-15T06:18:58.187Z,86.40
2019-01-15T06:21:27.871Z,86.47
2019-01-15T06:23:57.486Z,86.57
2019-01-15T06:26:26.828Z,86.80
2019-01-15T06:28:56.446Z,87.00
2019-01-15T06:31:26.081Z,87.06
2019-01-15T06:33:55.931Z,87.19
2019-01-15T06:36:25.581Z,87.43
2019-01-15T06:38:54.910Z,87.71
2019-01-15T06:41:24.612Z,88.01
2019-01-15T06:43:53.935Z,88.24
2019-01-15T06:46:23.570Z,88.59
2019-01-15T06:48:53.224Z,88.83
2019-01-15T06:51:22.678Z,89.05
2019-01-15T06:53:52.020Z,89.15
2019-01-15T06:56:21.953Z,89.29
2019-01-15T06:58:51.582Z,89.54
2019-01-15T07:01:33.621Z,89.68
2019-01-15T07:04:03.030Z,89.87
2019-01-15T07:06:32.700Z,90.11
2019-01-15T07:09:02.039Z,90.34
2019-01-15T07:11:33.002Z,90.55
2019-01-15T07:14:02.636Z,90.76
2019-01-15T07:19:27.903Z,91.35
2019-01-15T07:21:57.702Z,91.54
2019-01-15T07:24:27.053Z,91.77
2019-01-15T07:26:56.661Z,91.98
2019-01-15T07:29:26.541Z,92.00
2019-01-15T07:31:55.862Z,92.06
2019-01-15T07:34:25.213Z,92.33
2019-01-15T07:36:54.786Z,92.49
2019-01-15T07:39:24.520Z,92.71
2019-01-15T07:41:54.119Z,92.89
2019-01-15T07:44:23.780Z,92.99
2019-01-15T07:46:53.112Z,93.03
2019-01-15T07:49:22.765Z,93.16
2019-01-15T07:51:52.106Z,93.54
2019-01-15T07:54:40.832Z,93.95
2019-01-15T07:57:10.161Z,94.27
2019-01-15T07:59:41.125Z,94.65
2019-01-15T08:05:47.115Z,94.84
2019-01-15T08:08:17.102Z,94.96
2019-01-15T08:10:46.739Z,95.06
2019-01-15T08:13:16.190Z,95.03
2019-01-15T08:16:05.197Z,95.13
2019-01-15T08:18:34.898Z,95.20
2019-01-15T08:21:04.239Z,95.26
2019-01-15T08:23:33.833Z,95.38
2019-01-15T08:26:03.235Z,95.29
2019-01-15T08:28:32.913Z,95.36
2019-01-15T08:31:02.275Z,95.34
2019-01-15T08:33:31.885Z,95.34
2019-01-15T08:36:01.237Z,95.35
2019-01-15T08:38:30.872Z,95.30
2019-01-15T08:41:00.225Z,95.37
2019-01-15T08:43:31.179Z,95.40
2019-01-15T08:48:57.788Z,95.44
2019-01-15T08:51:27.339Z,95.41
2019-01-15T08:53:57.088Z,95.34
2019-01-15T08:56:26.501Z,95.20
2019-01-15T08:58:55.939Z,95.18
2019-01-15T09:04:06.132Z,94.78
2019-01-15T09:06:35.738Z,94.50
2019-01-15T09:09:45.122Z,94.54
2019-01-15T09:12:15.123Z,94.56
2019-01-15T09:14:44.475Z,94.61
2019-01-15T09:17:14.108Z,94.65
2019-01-15T09:19:43.768Z,94.71
2019-01-15T09:22:13.446Z,94.70
2019-01-15T09:24:51.311Z,94.73
2019-01-15T09:27:21.199Z,94.61
2019-01-15T09:29:50.829Z,94.62
2019-01-15T09:32:20.275Z,94.72
2019-01-15T09:34:49.932Z,94.68
2019-01-15T09:40:30.414Z,94.87
2019-01-15T09:43:00.050Z,95.36
2019-01-15T09:45:29.404Z,95.36
2019-01-15T09:50:56.225Z,94.91
2019-01-15T09:53:25.872Z,95.01
2019-01-15T09:55:55.227Z,94.94
2019-01-15T09:58:24.566Z,94.98
2019-01-15T10:00:54.030Z,94.94
2019-01-15T10:03:23.370Z,95.00
2019-01-15T10:05:52.717Z,95.09
2019-01-15T10:08:22.118Z,95.05
2019-01-15T10:10:51.465Z,95.17
2019-01-15T10:13:21.011Z,94.98
2019-01-15T10:15:50.372Z,94.87
2019-01-15T10:18:19.706Z,94.85
2019-01-15T10:20:49.257Z,94.86
2019-01-15T10:23:18.594Z,94.59
2019-01-15T10:25:48.689Z,94.47
2019-01-15T10:28:18.348Z,94.27
2019-01-15T10:31:09.189Z,94.20
2019-01-15T10:33:58.328Z,94.01
2019-01-15T10:36:27.244Z,93.72
2019-01-15T10:38:56.576Z,93.72
2019-01-15T10:41:26.240Z,93.71
2019-01-15T10:44:14.681Z,93.77
2019-01-15T10:46:44.100Z,93.72
2019-01-15T10:49:13.556Z,93.54
2019-01-15T10:51:43.150Z,93.84
2019-01-15T10:54:13.446Z,94.05
2019-01-15T10:56:42.807Z,94.36
2019-01-15T10:59:13.498Z,94.60
2019-01-15T11:01:43.146Z,94.79
2019-01-15T11:04:13.727Z,94.75
2019-01-15T11:06:43.151Z,94.73
2019-01-15T11:09:13.477Z,95.06
2019-01-15T11:11:43.117Z,95.06
2019-01-15T11:17:09.318Z,94.82
2019-01-15T11:19:38.655Z,94.59
2019-01-15T11:22:08.209Z,94.56
2019-01-15T11:24:37.543Z,94.28
2019-01-15T11:27:07.178Z,94.14
2019-01-15T11:29:36.508Z,94.04
2019-01-15T11:32:06.169Z,94.16
2019-01-15T11:34:35.506Z,94.23
2019-01-15T11:37:05.159Z,94.19
2019-01-15T11:39:34.888Z,94.18
2019-01-15T11:42:04.433Z,94.36
2019-01-15T11:44:33.774Z,94.42
2019-01-15T11:47:03.807Z,94.44
2019-01-15T11:49:54.102Z,94.07
2019-01-15T11:52:23.922Z,94.07
2019-01-15T11:58:09.778Z,93.89
2019-01-15T12:03:39.828Z,93.68
2019-01-15T12:06:28.456Z,93.65
2019-01-15T12:09:16.927Z,93.68
2019-01-15T12:12:05.438Z,93.33
2019-01-15T12:14:53.909Z,93.49
2019-01-15T12:17:42.766Z,93.38
2019-01-15T12:20:19.928Z,93.33
2019-01-15T12:26:03.588Z,93.33
2019-01-15T12:31:47.485Z,93.18
2019-01-15T12:37:16.770Z,92.97
2019-01-15T12:40:05.255Z,93.01
2019-01-15T12:42:53.776Z,92.95
2019-01-15T12:48:51.562Z,93.09
2019-01-15T12:54:45.775Z,93.01
2019-01-15T12:57:34.590Z,93.07
2019-01-15T13:06:34.593Z,92.64
2019-01-15T13:09:43.979Z,92.43
2019-01-15T13:15:34.473Z,92.20
2019-01-15T13:21:25.555Z,91.81
2019-01-15T13:24:14.100Z,91.71
2019-01-15T13:30:17.353Z,91.24
2019-01-15T13:33:06.053Z,91.33
2019-01-15T13:35:54.520Z,91.57
2019-01-15T13:38:42.988Z,91.30
2019-01-15T13:41:31.443Z,91.20
2019-01-15T13:44:11.633Z,91.16
2019-01-15T13:47:01.308Z,91.14
2019-01-15T13:49:49.789Z,91.07
2019-01-15T13:52:38.250Z,91.21
2019-01-15T13:55:28.095Z,91.43
2019-01-15T14:01:23.897Z,91.45
2019-01-15T14:04:12.358Z,91.52
2019-01-15T14:12:36.663Z,91.52
2019-01-15T14:15:49.097Z,91.45
2019-01-15T14:21:38.308Z,91.40
2019-01-15T14:24:26.775Z,91.44
2019-01-15T14:27:15.254Z,91.34
2019-01-15T14:33:12.871Z,91.12
2019-01-15T14:36:03.693Z,90.70
2019-01-15T14:38:52.142Z,90.66
2019-01-15T14:41:40.612Z,90.62
2019-01-15T14:44:29.051Z,90.62
2019-01-15T14:47:17.515Z,90.30
2019-01-15T14:53:02.298Z,90.37
2019-01-15T14:58:45.983Z,90.43
2019-01-15T15:01:34.456Z,90.25
2019-01-15T15:04:22.916Z,90.16
2019-01-15T15:12:47.194Z,90.16
2019-01-15T15:15:35.643Z,89.91
2019-01-15T15:24:13.028Z,89.96
2019-01-15T15:30:12.341Z,90.30
2019-01-15T15:33:01.120Z,89.97
2019-01-15T15:35:49.635Z,89.79
2019-01-15T15:38:38.112Z,89.96
2019-01-15T15:41:26.809Z,90.14
2019-01-15T15:44:15.264Z,90.01
2019-01-15T15:49:43.976Z,90.15
2019-01-15T15:55:48.701Z,90.37
2019-01-15T15:58:37.167Z,90.37
2019-01-15T16:04:21.530Z,90.40
2019-01-15T16:07:09.999Z,90.58
2019-01-15T16:09:58.453Z,90.68
2019-01-15T16:12:46.912Z,90.76
2019-01-15T16:15:35.367Z,90.82
2019-01-15T16:18:44.780Z,91.22
2019-01-15T16:21:33.234Z,91.45
2019-01-15T16:24:21.705Z,91.66
2019-01-15T16:27:10.468Z,91.69
2019-01-15T16:29:58.885Z,91.64
2019-01-15T16:32:47.605Z,91.63
2019-01-15T16:35:36.060Z,91.66
2019-01-15T16:38:24.652Z,91.69
2019-01-15T16:44:08.957Z,92.13
2019-01-15T16:46:57.491Z,92.31
2019-01-15T16:49:46.082Z,92.60
2019-01-15T16:52:34.568Z,92.93
2019-01-15T17:01:06.944Z,93.60
2019-01-15T17:06:36.202Z,93.83
2019-01-15T17:12:26.079Z,94.10
2019-01-15T17:15:15.207Z,94.12
2019-01-15T17:24:30.015Z,94.33
2019-01-15T17:27:18.491Z,94.30
2019-01-15T17:38:54.481Z,93.43
2019-01-15T17:41:43.193Z,93.37
2019-01-15T17:44:31.669Z,93.45
2019-01-15T17:50:15.865Z,93.33
2019-01-15T17:53:04.328Z,93.24
2019-01-15T17:55:52.799Z,92.97
2019-01-15T17:58:41.319Z,92.92
2019-01-15T18:01:30.022Z,92.91
2019-01-15T18:04:18.511Z,92.88
2019-01-15T18:07:06.973Z,92.69
2019-01-15T18:09:55.711Z,92.63
2019-01-15T18:12:44.170Z,92.65
2019-01-15T18:15:32.699Z,92.92
2019-01-15T18:18:21.394Z,93.08
2019-01-15T18:21:29.215Z,93.26
2019-01-15T18:24:17.697Z,93.56
2019-01-15T18:27:06.171Z,94.20
2019-01-15T18:29:54.668Z,94.81
2019-01-15T18:32:45.761Z,95.34
2019-01-15T18:35:34.257Z,95.67
2019-01-15T18:38:22.723Z,96.75
2019-01-15T18:41:11.199Z,97.68
2019-01-15T18:44:01.291Z,98.29
2019-01-15T18:46:55.807Z,99.09
2019-01-15T18:49:59.039Z,99.65
2019-01-15T18:52:47.745Z,100.00
2019-01-15T18:55:36.223Z,100.00
2019-01-15T18:58:24.731Z,100.00
2019-01-15T19:04:16.015Z,100.00
2019-01-15T19:07:04.486Z,100.00
2019-01-15T19:09:52.954Z,100.00
2019-01-15T19:12:41.440Z,100.00
2019-01-15T19:15:41.980Z,100.00
2019-01-15T19:18:30.689Z,100.00
2019-01-15T19:21:19.179Z,100.00
2019-01-15T19:29:57.395Z,100.00
2019-01-15T19:32:45.879Z,100.00
2019-01-15T19:35:34.390Z,100.00
2019-01-15T19:38:24.853Z,100.00
2019-01-15T19:44:10.417Z,100.00
2019-01-15T19:46:59.201Z,100.00
2019-01-15T19:49:47.675Z,100.00
2019-01-15T19:52:36.146Z,100.00
2019-01-15T20:01:52.879Z,100.00
2019-01-15T20:07:50.467Z,100.00
2019-01-15T20:10:38.953Z,100.00
2019-01-15T20:13:27.428Z,100.00
2019-01-15T20:16:16.090Z,100.00
2019-01-15T20:19:04.548Z,100.00
2019-01-15T20:21:55.092Z,100.00
2019-01-15T20:27:44.768Z,100.00
2019-01-15T20:33:42.416Z,100.00
2019-01-15T20:36:31.152Z,100.00
2019-01-15T20:39:19.619Z,100.00
2019-01-15T20:42:08.098Z,100.00
2019-01-15T20:44:56.624Z,100.00
2019-01-15T20:47:45.058Z,100.00
2019-01-15T20:53:42.721Z,100.00
2019-01-15T20:56:31.195Z,100.00
2019-01-15T20:59:19.931Z,100.00
2019-01-15T21:04:48.984Z,100.00
2019-01-15T21:07:37.776Z,100.00
2019-01-15T21:10:47.406Z,100.00
2019-01-15T21:16:14.884Z,100.00
2019-01-15T21:19:03.450Z,100.00
2019-01-15T21:21:51.931Z,100.00
2019-01-15T21:24:40.420Z,100.00
2019-01-15T21:27:29.667Z,100.00
2019-01-15T21:30:18.416Z,100.00
2019-01-15T21:33:06.872Z,100.00
2019-01-15T21:35:55.364Z,100.00
2019-01-15T21:41:24.923Z,100.00
2019-01-15T21:44:13.409Z,100.00
2019-01-15T21:47:02.053Z,100.00
2019-01-15T21:52:47.793Z,100.00
2019-01-15T21:55:41.429Z,100.00
2019-01-15T22:01:08.932Z,100.00
2019-01-15T22:03:57.420Z,100.00
2019-01-15T22:06:45.915Z,100.00
2019-01-15T22:09:34.398Z,100.00
2019-01-15T22:12:41.986Z,100.00
2019-01-15T22:15:30.556Z,100.00
2019-01-15T22:18:19.743Z,100.00
2019-01-15T22:21:08.234Z,100.00
2019-01-15T22:23:56.715Z,100.00
2019-01-15T22:26:45.172Z,100.00
2019-01-15T22:29:33.681Z,100.00
2019-01-15T22:32:22.202Z,100.00
2019-01-15T22:43:27.438Z,99.73
2019-01-15T22:46:15.929Z,99.69
2019-01-15T22:49:04.401Z,99.57
2019-01-15T22:51:52.878Z,99.43
2019-01-15T22:54:41.510Z,99.26
2019-01-15T22:57:29.984Z,99.07
2019-01-15T23:00:18.455Z,99.07
2019-01-15T23:03:08.551Z,98.86
2019-01-15T23:11:32.256Z,98.47
2019-01-15T23:22:56.565Z,98.10
2019-01-15T23:26:04.394Z,97.93
2019-01-15T23:28:52.867Z,97.64
2019-01-15T23:31:42.964Z,97.49
2019-01-15T23:34:31.425Z,97.38
2019-01-15T23:37:19.902Z,97.16
2019-01-15T23:40:08.373Z,97.04
2019-01-15T23:45:37.195Z,97.07
2019-01-15T23:54:30.063Z,96.39
2019-01-15T23:57:18.549Z,96.12
